sensor_id;sensor_type;location;lat;lon;timestamp;temperature;humidity
60868;DHT22;46702;48.370;10.794;2022-12-28T00:00:23;-1.10;99.90
60868;DHT22;46702;48.370;10.794;2022-12-28T00:02:49;-1.00;99.90
60868;DHT22;46702;48.370;10.794;2022-12-28T00:05:14;-0.90;99.90
60868;DHT22;46702;48.370;10.794;2022-12-28T00:07:42;-0.90;99.90
60868;DHT22;46702;48.370;10.794;2022-12-28T00:10:08;-0.80;99.90
60868;DHT22;46702;48.370;10.794;2022-12-28T00:12:34;-0.70;99.90
60868;DHT22;46702;48.370;10.794;2022-12-28T00:14:59;-0.70;99.90
60868;DHT22;46702;48.370;10.794;2022-12-28T00:17:25;-0.70;99.90
60868;DHT22;46702;48.370;10.794;2022-12-28T00:19:50;-0.70;99.90
60868;DHT22;46702;48.370;10.794;2022-12-28T00:22:16;-0.70;99.90
60868;DHT22;46702;48.370;10.794;2022-12-28T00:24:41;-0.70;99.90
60868;DHT22;46702;48.370;10.794;2022-12-28T00:27:07;-0.70;99.90
60868;DHT22;46702;48.370;10.794;2022-12-28T00:29:33;-0.70;99.90
60868;DHT22;46702;48.370;10.794;2022-12-28T00:31:58;-0.70;99.90
60868;DHT22;46702;48.370;10.794;2022-12-28T00:34:24;-0.70;99.90
60868;DHT22;46702;48.370;10.794;2022-12-28T00:36:50;-0.70;99.90
60868;DHT22;46702;48.370;10.794;2022-12-28T00:39:16;-0.80;99.90
60868;DHT22;46702;48.370;10.794;2022-12-28T00:41:42;-0.90;99.90
60868;DHT22;46702;48.370;10.794;2022-12-28T00:44:08;-0.90;99.90
60868;DHT22;46702;48.370;10.794;2022-12-28T00:46:34;-1.00;99.90
60868;DHT22;46702;48.370;10.794;2022-12-28T00:48:59;-1.10;99.90
60868;DHT22;46702;48.370;10.794;2022-12-28T00:51:25;-1.10;99.90
60868;DHT22;46702;48.370;10.794;2022-12-28T00:53:50;-1.10;99.90
60868;DHT22;46702;48.370;10.794;2022-12-28T00:56:19;-1.00;99.90
60868;DHT22;46702;48.370;10.794;2022-12-28T00:58:45;-1.00;99.90
60868;DHT22;46702;48.370;10.794;2022-12-28T01:01:19;-0.90;99.90
60868;DHT22;46702;48.370;10.794;2022-12-28T01:03:45;-0.90;99.90
60868;DHT22;46702;48.370;10.794;2022-12-28T01:06:12;-0.90;99.90
60868;DHT22;46702;48.370;10.794;2022-12-28T01:08:39;-0.90;99.90
60868;DHT22;46702;48.370;10.794;2022-12-28T01:11:09;-0.90;99.90
60868;DHT22;46702;48.370;10.794;2022-12-28T01:13:36;-0.90;99.90
60868;DHT22;46702;48.370;10.794;2022-12-28T01:16:13;-1.00;99.90
60868;DHT22;46702;48.370;10.794;2022-12-28T01:18:39;-1.00;99.90
60868;DHT22;46702;48.370;10.794;2022-12-28T01:21:14;-1.00;99.90
60868;DHT22;46702;48.370;10.794;2022-12-28T01:23:40;-0.90;99.90
60868;DHT22;46702;48.370;10.794;2022-12-28T01:26:06;-0.90;99.90
60868;DHT22;46702;48.370;10.794;2022-12-28T01:28:32;-0.90;99.90
60868;DHT22;46702;48.370;10.794;2022-12-28T01:31:09;-0.80;99.90
60868;DHT22;46702;48.370;10.794;2022-12-28T01:33:35;-0.80;99.90
60868;DHT22;46702;48.370;10.794;2022-12-28T01:36:08;-0.80;99.90
60868;DHT22;46702;48.370;10.794;2022-12-28T01:38:35;-0.90;99.90
60868;DHT22;46702;48.370;10.794;2022-12-28T01:41:01;-0.90;99.90
60868;DHT22;46702;48.370;10.794;2022-12-28T01:46:19;-0.90;99.90
60868;DHT22;46702;48.370;10.794;2022-12-28T01:48:56;-0.90;99.90
60868;DHT22;46702;48.370;10.794;2022-12-28T01:51:28;-0.90;99.90
60868;DHT22;46702;48.370;10.794;2022-12-28T01:53:55;-0.80;99.90
60868;DHT22;46702;48.370;10.794;2022-12-28T01:56:24;-0.80;99.90
60868;DHT22;46702;48.370;10.794;2022-12-28T01:58:50;-0.80;99.90
60868;DHT22;46702;48.370;10.794;2022-12-28T02:01:17;-0.70;99.90
60868;DHT22;46702;48.370;10.794;2022-12-28T02:03:42;-0.70;99.90
60868;DHT22;46702;48.370;10.794;2022-12-28T02:06:10;-0.70;99.90
60868;DHT22;46702;48.370;10.794;2022-12-28T02:08:57;-0.70;99.90
60868;DHT22;46702;48.370;10.794;2022-12-28T02:11:24;-0.80;99.90
60868;DHT22;46702;48.370;10.794;2022-12-28T02:13:51;-0.70;99.90
60868;DHT22;46702;48.370;10.794;2022-12-28T02:16:18;-0.90;99.90
60868;DHT22;46702;48.370;10.794;2022-12-28T02:18:45;-0.90;99.90
60868;DHT22;46702;48.370;10.794;2022-12-28T02:21:23;-1.00;99.90
60868;DHT22;46702;48.370;10.794;2022-12-28T02:31:59;-1.00;99.90
60868;DHT22;46702;48.370;10.794;2022-12-28T02:34:39;-1.00;99.90
60868;DHT22;46702;48.370;10.794;2022-12-28T02:37:19;-1.00;99.90
60868;DHT22;46702;48.370;10.794;2022-12-28T02:39:51;-1.00;99.90
60868;DHT22;46702;48.370;10.794;2022-12-28T02:42:19;-1.00;99.90
60868;DHT22;46702;48.370;10.794;2022-12-28T02:44:46;-1.20;99.90
60868;DHT22;46702;48.370;10.794;2022-12-28T02:47:30;-1.20;99.90
60868;DHT22;46702;48.370;10.794;2022-12-28T02:50:15;-1.30;99.90
60868;DHT22;46702;48.370;10.794;2022-12-28T02:55:56;-1.30;99.90
60868;DHT22;46702;48.370;10.794;2022-12-28T03:03:58;-1.10;99.90
60868;DHT22;46702;48.370;10.794;2022-12-28T03:09:51;-1.00;99.90
60868;DHT22;46702;48.370;10.794;2022-12-28T03:12:26;-0.90;99.90
60868;DHT22;46702;48.370;10.794;2022-12-28T03:14:58;-0.90;99.90
60868;DHT22;46702;48.370;10.794;2022-12-28T03:17:29;-0.90;99.90
60868;DHT22;46702;48.370;10.794;2022-12-28T03:20:24;-1.00;99.90
60868;DHT22;46702;48.370;10.794;2022-12-28T03:23:15;-1.00;99.90
60868;DHT22;46702;48.370;10.794;2022-12-28T03:26:02;-0.90;99.90
60868;DHT22;46702;48.370;10.794;2022-12-28T03:28:47;-0.90;99.90
60868;DHT22;46702;48.370;10.794;2022-12-28T03:31:33;-0.90;99.90
60868;DHT22;46702;48.370;10.794;2022-12-28T03:34:02;-0.90;99.90
60868;DHT22;46702;48.370;10.794;2022-12-28T03:36:47;-0.80;99.90
60868;DHT22;46702;48.370;10.794;2022-12-28T03:39:35;-0.80;99.90
60868;DHT22;46702;48.370;10.794;2022-12-28T03:42:14;-0.80;99.90
60868;DHT22;46702;48.370;10.794;2022-12-28T03:45:08;-0.80;99.90
60868;DHT22;46702;48.370;10.794;2022-12-28T03:47:37;-0.70;99.90
60868;DHT22;46702;48.370;10.794;2022-12-28T03:50:05;-0.70;99.90
60868;DHT22;46702;48.370;10.794;2022-12-28T03:52:31;-0.80;99.90
60868;DHT22;46702;48.370;10.794;2022-12-28T03:54:57;-0.80;99.90
60868;DHT22;46702;48.370;10.794;2022-12-28T03:57:23;-0.80;99.90
60868;DHT22;46702;48.370;10.794;2022-12-28T03:59:48;-0.80;99.90
60868;DHT22;46702;48.370;10.794;2022-12-28T04:02:14;-0.70;99.90
60868;DHT22;46702;48.370;10.794;2022-12-28T04:04:40;-0.60;99.90
60868;DHT22;46702;48.370;10.794;2022-12-28T04:07:05;-0.60;99.90
60868;DHT22;46702;48.370;10.794;2022-12-28T04:09:31;-0.60;99.90
60868;DHT22;46702;48.370;10.794;2022-12-28T04:11:57;-0.60;99.90
60868;DHT22;46702;48.370;10.794;2022-12-28T04:14:23;-0.60;99.90
60868;DHT22;46702;48.370;10.794;2022-12-28T04:16:48;-0.60;99.90
60868;DHT22;46702;48.370;10.794;2022-12-28T04:19:14;-0.60;99.90
60868;DHT22;46702;48.370;10.794;2022-12-28T04:21:40;-0.50;99.90
60868;DHT22;46702;48.370;10.794;2022-12-28T04:24:05;-0.50;99.90
60868;DHT22;46702;48.370;10.794;2022-12-28T04:26:31;-0.40;99.90
60868;DHT22;46702;48.370;10.794;2022-12-28T04:28:56;-0.40;99.90
60868;DHT22;46702;48.370;10.794;2022-12-28T04:31:27;-0.40;99.90
60868;DHT22;46702;48.370;10.794;2022-12-28T04:33:55;-0.30;99.90
60868;DHT22;46702;48.370;10.794;2022-12-28T04:36:20;-0.30;99.90
60868;DHT22;46702;48.370;10.794;2022-12-28T04:38:46;-0.20;99.90
60868;DHT22;46702;48.370;10.794;2022-12-28T04:41:12;-0.20;99.90
60868;DHT22;46702;48.370;10.794;2022-12-28T04:43:38;-0.10;99.90
60868;DHT22;46702;48.370;10.794;2022-12-28T04:46:06;-0.10;99.90
60868;DHT22;46702;48.370;10.794;2022-12-28T04:48:34;-0.10;99.90
60868;DHT22;46702;48.370;10.794;2022-12-28T04:51:05;0.00;99.90
60868;DHT22;46702;48.370;10.794;2022-12-28T04:53:35;0.00;99.90
60868;DHT22;46702;48.370;10.794;2022-12-28T04:56:08;0.10;99.90
60868;DHT22;46702;48.370;10.794;2022-12-28T04:58:35;0.10;99.90
60868;DHT22;46702;48.370;10.794;2022-12-28T05:01:02;0.10;99.90
60868;DHT22;46702;48.370;10.794;2022-12-28T05:03:28;0.20;99.90
60868;DHT22;46702;48.370;10.794;2022-12-28T05:05:58;0.10;99.90
60868;DHT22;46702;48.370;10.794;2022-12-28T05:08:23;0.10;99.90
60868;DHT22;46702;48.370;10.794;2022-12-28T05:10:49;0.10;99.90
60868;DHT22;46702;48.370;10.794;2022-12-28T05:13:14;0.20;99.90
60868;DHT22;46702;48.370;10.794;2022-12-28T05:15:40;0.20;99.90
60868;DHT22;46702;48.370;10.794;2022-12-28T05:18:06;0.20;99.90
60868;DHT22;46702;48.370;10.794;2022-12-28T05:20:31;0.30;99.90
60868;DHT22;46702;48.370;10.794;2022-12-28T05:22:57;0.40;99.90
60868;DHT22;46702;48.370;10.794;2022-12-28T05:25:22;0.40;99.90
60868;DHT22;46702;48.370;10.794;2022-12-28T05:27:48;0.40;99.90
60868;DHT22;46702;48.370;10.794;2022-12-28T05:30:13;0.30;99.90
60868;DHT22;46702;48.370;10.794;2022-12-28T05:32:39;0.20;99.90
60868;DHT22;46702;48.370;10.794;2022-12-28T05:35:05;0.20;99.90
60868;DHT22;46702;48.370;10.794;2022-12-28T05:37:30;0.20;99.90
60868;DHT22;46702;48.370;10.794;2022-12-28T05:39:56;0.30;99.90
60868;DHT22;46702;48.370;10.794;2022-12-28T05:42:22;0.30;99.90
60868;DHT22;46702;48.370;10.794;2022-12-28T05:44:47;0.40;99.90
60868;DHT22;46702;48.370;10.794;2022-12-28T05:47:13;0.50;99.90
60868;DHT22;46702;48.370;10.794;2022-12-28T05:49:38;0.60;99.90
60868;DHT22;46702;48.370;10.794;2022-12-28T05:52:04;0.60;99.90
60868;DHT22;46702;48.370;10.794;2022-12-28T05:54:29;0.60;99.90
60868;DHT22;46702;48.370;10.794;2022-12-28T05:56:55;0.50;99.90
60868;DHT22;46702;48.370;10.794;2022-12-28T05:59:21;0.50;99.90
60868;DHT22;46702;48.370;10.794;2022-12-28T06:01:46;0.50;99.90
60868;DHT22;46702;48.370;10.794;2022-12-28T06:04:17;0.50;99.90
60868;DHT22;46702;48.370;10.794;2022-12-28T06:06:44;0.60;99.90
60868;DHT22;46702;48.370;10.794;2022-12-28T06:09:10;0.60;99.90
60868;DHT22;46702;48.370;10.794;2022-12-28T06:11:35;0.70;99.90
60868;DHT22;46702;48.370;10.794;2022-12-28T06:14:01;0.70;99.90
60868;DHT22;46702;48.370;10.794;2022-12-28T06:16:29;0.80;99.90
60868;DHT22;46702;48.370;10.794;2022-12-28T06:18:55;0.80;99.90
60868;DHT22;46702;48.370;10.794;2022-12-28T06:21:29;0.80;99.90
60868;DHT22;46702;48.370;10.794;2022-12-28T06:23:57;0.90;99.90
60868;DHT22;46702;48.370;10.794;2022-12-28T06:26:23;0.90;99.90
60868;DHT22;46702;48.370;10.794;2022-12-28T06:28:49;0.90;99.90
60868;DHT22;46702;48.370;10.794;2022-12-28T06:31:17;1.00;99.90
60868;DHT22;46702;48.370;10.794;2022-12-28T06:33:44;1.00;99.90
60868;DHT22;46702;48.370;10.794;2022-12-28T06:36:17;1.00;99.90
60868;DHT22;46702;48.370;10.794;2022-12-28T06:38:44;0.90;99.90
60868;DHT22;46702;48.370;10.794;2022-12-28T06:41:11;1.00;99.90
60868;DHT22;46702;48.370;10.794;2022-12-28T06:43:39;1.00;99.90
60868;DHT22;46702;48.370;10.794;2022-12-28T06:46:05;1.00;99.90
60868;DHT22;46702;48.370;10.794;2022-12-28T06:48:32;1.00;99.90
60868;DHT22;46702;48.370;10.794;2022-12-28T06:51:00;1.10;99.90
60868;DHT22;46702;48.370;10.794;2022-12-28T06:53:29;1.10;99.90
60868;DHT22;46702;48.370;10.794;2022-12-28T06:55:55;1.20;99.90
60868;DHT22;46702;48.370;10.794;2022-12-28T06:58:22;1.30;99.90
60868;DHT22;46702;48.370;10.794;2022-12-28T07:00:48;1.40;99.90
60868;DHT22;46702;48.370;10.794;2022-12-28T07:03:14;1.60;99.90
60868;DHT22;46702;48.370;10.794;2022-12-28T07:05:40;1.70;99.90
60868;DHT22;46702;48.370;10.794;2022-12-28T07:08:06;1.70;99.90
60868;DHT22;46702;48.370;10.794;2022-12-28T07:10:34;1.70;99.90
60868;DHT22;46702;48.370;10.794;2022-12-28T07:13:00;1.60;99.90
60868;DHT22;46702;48.370;10.794;2022-12-28T07:15:25;1.60;99.90
60868;DHT22;46702;48.370;10.794;2022-12-28T07:17:51;1.60;99.90
60868;DHT22;46702;48.370;10.794;2022-12-28T07:20:16;1.70;99.90
60868;DHT22;46702;48.370;10.794;2022-12-28T07:22:42;1.60;99.90
60868;DHT22;46702;48.370;10.794;2022-12-28T07:25:08;1.70;99.90
60868;DHT22;46702;48.370;10.794;2022-12-28T07:27:35;1.80;99.90
60868;DHT22;46702;48.370;10.794;2022-12-28T07:30:01;1.90;99.90
60868;DHT22;46702;48.370;10.794;2022-12-28T07:32:27;2.00;99.90
60868;DHT22;46702;48.370;10.794;2022-12-28T07:34:52;2.10;99.90
60868;DHT22;46702;48.370;10.794;2022-12-28T07:37:18;2.20;99.90
60868;DHT22;46702;48.370;10.794;2022-12-28T07:39:43;2.20;99.90
60868;DHT22;46702;48.370;10.794;2022-12-28T07:42:09;2.30;99.90
60868;DHT22;46702;48.370;10.794;2022-12-28T07:44:39;2.40;99.90
60868;DHT22;46702;48.370;10.794;2022-12-28T07:47:10;2.30;99.90
60868;DHT22;46702;48.370;10.794;2022-12-28T07:49:36;2.40;99.90
60868;DHT22;46702;48.370;10.794;2022-12-28T07:52:01;2.50;99.90
60868;DHT22;46702;48.370;10.794;2022-12-28T07:54:27;2.60;99.90
60868;DHT22;46702;48.370;10.794;2022-12-28T07:56:53;2.60;99.90
60868;DHT22;46702;48.370;10.794;2022-12-28T07:59:19;2.70;99.90
60868;DHT22;46702;48.370;10.794;2022-12-28T08:01:44;2.80;99.90
60868;DHT22;46702;48.370;10.794;2022-12-28T08:04:12;2.80;99.90
60868;DHT22;46702;48.370;10.794;2022-12-28T08:06:40;2.90;99.90
60868;DHT22;46702;48.370;10.794;2022-12-28T08:09:08;3.00;99.90
60868;DHT22;46702;48.370;10.794;2022-12-28T08:11:36;3.10;99.90
60868;DHT22;46702;48.370;10.794;2022-12-28T08:14:03;3.20;99.90
60868;DHT22;46702;48.370;10.794;2022-12-28T08:16:32;3.20;99.90
60868;DHT22;46702;48.370;10.794;2022-12-28T08:18:59;3.30;99.90
60868;DHT22;46702;48.370;10.794;2022-12-28T08:21:27;3.30;99.90
60868;DHT22;46702;48.370;10.794;2022-12-28T08:23:53;3.30;99.90
60868;DHT22;46702;48.370;10.794;2022-12-28T08:26:27;3.40;99.90
60868;DHT22;46702;48.370;10.794;2022-12-28T08:28:55;3.40;99.90
60868;DHT22;46702;48.370;10.794;2022-12-28T08:31:30;3.50;99.90
60868;DHT22;46702;48.370;10.794;2022-12-28T08:33:57;3.50;99.90
60868;DHT22;46702;48.370;10.794;2022-12-28T08:36:23;3.60;99.90
60868;DHT22;46702;48.370;10.794;2022-12-28T08:38:50;3.60;99.90
60868;DHT22;46702;48.370;10.794;2022-12-28T08:41:18;3.70;99.90
60868;DHT22;46702;48.370;10.794;2022-12-28T08:43:45;3.70;99.90
60868;DHT22;46702;48.370;10.794;2022-12-28T08:46:19;3.80;99.90
60868;DHT22;46702;48.370;10.794;2022-12-28T08:48:46;4.00;99.90
60868;DHT22;46702;48.370;10.794;2022-12-28T08:51:14;4.00;99.90
60868;DHT22;46702;48.370;10.794;2022-12-28T08:53:41;4.10;99.90
60868;DHT22;46702;48.370;10.794;2022-12-28T08:56:14;4.30;99.90
60868;DHT22;46702;48.370;10.794;2022-12-28T08:58:40;4.30;99.90
60868;DHT22;46702;48.370;10.794;2022-12-28T09:01:12;4.40;99.90
60868;DHT22;46702;48.370;10.794;2022-12-28T09:03:40;4.50;99.90
60868;DHT22;46702;48.370;10.794;2022-12-28T09:06:08;4.60;99.90
60868;DHT22;46702;48.370;10.794;2022-12-28T09:08:34;4.70;99.90
60868;DHT22;46702;48.370;10.794;2022-12-28T09:11:01;4.70;99.90
60868;DHT22;46702;48.370;10.794;2022-12-28T09:13:28;4.80;99.90
60868;DHT22;46702;48.370;10.794;2022-12-28T09:16:08;4.90;99.90
60868;DHT22;46702;48.370;10.794;2022-12-28T09:18:35;5.00;99.90
60868;DHT22;46702;48.370;10.794;2022-12-28T09:21:20;5.10;99.90
60868;DHT22;46702;48.370;10.794;2022-12-28T09:23:47;5.20;99.90
60868;DHT22;46702;48.370;10.794;2022-12-28T09:26:16;5.20;99.90
60868;DHT22;46702;48.370;10.794;2022-12-28T09:28:48;5.30;99.90
60868;DHT22;46702;48.370;10.794;2022-12-28T09:31:15;5.40;99.90
60868;DHT22;46702;48.370;10.794;2022-12-28T09:33:42;5.50;99.90
60868;DHT22;46702;48.370;10.794;2022-12-28T09:38:55;5.60;99.90
60868;DHT22;46702;48.370;10.794;2022-12-28T09:41:42;5.70;99.90
60868;DHT22;46702;48.370;10.794;2022-12-28T09:49:37;5.70;99.90
60868;DHT22;46702;48.370;10.794;2022-12-28T09:52:29;5.80;99.90
60868;DHT22;46702;48.370;10.794;2022-12-28T09:55:10;5.80;99.90
60868;DHT22;46702;48.370;10.794;2022-12-28T09:57:39;5.90;99.90
60868;DHT22;46702;48.370;10.794;2022-12-28T10:00:13;6.00;99.90
60868;DHT22;46702;48.370;10.794;2022-12-28T10:02:39;6.00;99.90
60868;DHT22;46702;48.370;10.794;2022-12-28T10:05:05;6.00;99.90
60868;DHT22;46702;48.370;10.794;2022-12-28T10:07:31;6.10;99.90
60868;DHT22;46702;48.370;10.794;2022-12-28T10:09:57;6.10;99.90
60868;DHT22;46702;48.370;10.794;2022-12-28T10:12:23;6.10;99.90
60868;DHT22;46702;48.370;10.794;2022-12-28T10:14:50;6.10;99.90
60868;DHT22;46702;48.370;10.794;2022-12-28T10:17:18;6.20;99.90
60868;DHT22;46702;48.370;10.794;2022-12-28T10:19:45;6.20;99.90
60868;DHT22;46702;48.370;10.794;2022-12-28T10:22:18;6.20;99.90
60868;DHT22;46702;48.370;10.794;2022-12-28T10:24:45;6.20;99.90
60868;DHT22;46702;48.370;10.794;2022-12-28T10:27:19;6.20;99.90
60868;DHT22;46702;48.370;10.794;2022-12-28T10:29:45;6.30;99.90
60868;DHT22;46702;48.370;10.794;2022-12-28T10:32:11;6.40;99.90
60868;DHT22;46702;48.370;10.794;2022-12-28T10:35:05;6.40;99.90
60868;DHT22;46702;48.370;10.794;2022-12-28T10:37:31;6.50;99.90
60868;DHT22;46702;48.370;10.794;2022-12-28T10:40:17;6.50;99.90
60868;DHT22;46702;48.370;10.794;2022-12-28T10:42:51;6.50;99.90
60868;DHT22;46702;48.370;10.794;2022-12-28T10:45:19;6.50;99.90
60868;DHT22;46702;48.370;10.794;2022-12-28T10:47:47;6.50;99.90
60868;DHT22;46702;48.370;10.794;2022-12-28T10:53:24;6.60;99.90
60868;DHT22;46702;48.370;10.794;2022-12-28T10:56:05;6.70;99.90
60868;DHT22;46702;48.370;10.794;2022-12-28T10:58:31;6.80;99.90
60868;DHT22;46702;48.370;10.794;2022-12-28T11:01:04;6.80;99.90
60868;DHT22;46702;48.370;10.794;2022-12-28T11:03:33;6.80;99.90
60868;DHT22;46702;48.370;10.794;2022-12-28T11:08:43;7.00;99.90
60868;DHT22;46702;48.370;10.794;2022-12-28T11:11:21;6.90;99.90
60868;DHT22;46702;48.370;10.794;2022-12-28T11:13:58;6.90;99.90
60868;DHT22;46702;48.370;10.794;2022-12-28T11:16:25;6.80;99.90
60868;DHT22;46702;48.370;10.794;2022-12-28T11:18:50;7.00;99.90
60868;DHT22;46702;48.370;10.794;2022-12-28T11:21:20;7.00;99.90
60868;DHT22;46702;48.370;10.794;2022-12-28T11:23:50;7.10;99.90
60868;DHT22;46702;48.370;10.794;2022-12-28T11:26:17;7.20;99.90
60868;DHT22;46702;48.370;10.794;2022-12-28T11:28:45;7.20;99.90
60868;DHT22;46702;48.370;10.794;2022-12-28T11:31:34;7.20;99.90
60868;DHT22;46702;48.370;10.794;2022-12-28T11:34:04;7.30;99.90
60868;DHT22;46702;48.370;10.794;2022-12-28T11:36:31;7.40;99.90
60868;DHT22;46702;48.370;10.794;2022-12-28T11:41:50;7.50;99.90
60868;DHT22;46702;48.370;10.794;2022-12-28T11:47:06;7.60;99.90
60868;DHT22;46702;48.370;10.794;2022-12-28T11:49:45;7.60;99.90
60868;DHT22;46702;48.370;10.794;2022-12-28T11:57:36;7.80;99.90
60868;DHT22;46702;48.370;10.794;2022-12-28T12:02:58;7.90;99.90
60868;DHT22;46702;48.370;10.794;2022-12-28T12:10:44;8.10;99.90
60868;DHT22;46702;48.370;10.794;2022-12-28T12:15:57;8.20;99.90
60868;DHT22;46702;48.370;10.794;2022-12-28T12:18:26;8.20;99.90
60868;DHT22;46702;48.370;10.794;2022-12-28T12:20:58;8.20;99.90
60868;DHT22;46702;48.370;10.794;2022-12-28T12:23:39;8.20;99.90
60868;DHT22;46702;48.370;10.794;2022-12-28T12:26:26;8.20;99.90
60868;DHT22;46702;48.370;10.794;2022-12-28T12:29:06;8.10;99.90
60868;DHT22;46702;48.370;10.794;2022-12-28T12:32:14;8.20;99.90
60868;DHT22;46702;48.370;10.794;2022-12-28T12:34:46;8.20;99.90
60868;DHT22;46702;48.370;10.794;2022-12-28T12:37:36;8.20;99.90
60868;DHT22;46702;48.370;10.794;2022-12-28T12:40:16;8.20;99.90
60868;DHT22;46702;48.370;10.794;2022-12-28T12:45:41;8.50;99.90
60868;DHT22;46702;48.370;10.794;2022-12-28T12:48:26;8.50;99.90
60868;DHT22;46702;48.370;10.794;2022-12-28T12:56:53;8.60;99.90
60868;DHT22;46702;48.370;10.794;2022-12-28T13:04:41;8.60;99.90
60868;DHT22;46702;48.370;10.794;2022-12-28T13:09:44;8.60;99.90
60868;DHT22;46702;48.370;10.794;2022-12-28T13:12:14;8.60;99.90
60868;DHT22;46702;48.370;10.794;2022-12-28T13:14:45;8.70;99.90
60868;DHT22;46702;48.370;10.794;2022-12-28T13:17:17;8.80;99.90
60868;DHT22;46702;48.370;10.794;2022-12-28T13:19:44;8.80;99.90
60868;DHT22;46702;48.370;10.794;2022-12-28T13:22:31;8.70;99.90
60868;DHT22;46702;48.370;10.794;2022-12-28T13:24:57;8.80;99.90
60868;DHT22;46702;48.370;10.794;2022-12-28T13:27:30;8.70;99.90
60868;DHT22;46702;48.370;10.794;2022-12-28T13:29:57;8.70;99.90
60868;DHT22;46702;48.370;10.794;2022-12-28T13:32:31;8.60;99.90
60868;DHT22;46702;48.370;10.794;2022-12-28T13:34:59;8.60;99.90
60868;DHT22;46702;48.370;10.794;2022-12-28T13:37:24;8.60;99.60
60868;DHT22;46702;48.370;10.794;2022-12-28T13:40:10;8.60;99.90
60868;DHT22;46702;48.370;10.794;2022-12-28T13:42:54;8.60;99.80
60868;DHT22;46702;48.370;10.794;2022-12-28T13:45:23;8.50;97.40
60868;DHT22;46702;48.370;10.794;2022-12-28T13:47:51;8.40;98.30
60868;DHT22;46702;48.370;10.794;2022-12-28T13:50:26;8.30;99.50
60868;DHT22;46702;48.370;10.794;2022-12-28T13:53:02;8.30;99.40
60868;DHT22;46702;48.370;10.794;2022-12-28T13:55:41;8.30;99.90
60868;DHT22;46702;48.370;10.794;2022-12-28T13:58:14;8.30;99.90
60868;DHT22;46702;48.370;10.794;2022-12-28T14:00:46;8.30;99.90
60868;DHT22;46702;48.370;10.794;2022-12-28T14:03:12;8.40;99.90
60868;DHT22;46702;48.370;10.794;2022-12-28T14:05:48;8.50;99.90
60868;DHT22;46702;48.370;10.794;2022-12-28T14:08:16;8.70;99.90
60868;DHT22;46702;48.370;10.794;2022-12-28T14:10:42;8.80;99.90
60868;DHT22;46702;48.370;10.794;2022-12-28T14:13:11;8.80;97.70
60868;DHT22;46702;48.370;10.794;2022-12-28T14:15:37;8.80;95.30
60868;DHT22;46702;48.370;10.794;2022-12-28T14:18:03;8.70;97.70
60868;DHT22;46702;48.370;10.794;2022-12-28T14:20:29;8.60;97.40
60868;DHT22;46702;48.370;10.794;2022-12-28T14:23:37;8.70;97.40
60868;DHT22;46702;48.370;10.794;2022-12-28T14:26:07;8.60;96.60
60868;DHT22;46702;48.370;10.794;2022-12-28T14:28:42;8.60;97.20
60868;DHT22;46702;48.370;10.794;2022-12-28T14:31:11;8.60;98.40
60868;DHT22;46702;48.370;10.794;2022-12-28T14:33:56;8.60;97.00
60868;DHT22;46702;48.370;10.794;2022-12-28T14:36:41;8.60;97.70
60868;DHT22;46702;48.370;10.794;2022-12-28T14:39:25;8.60;99.90
60868;DHT22;46702;48.370;10.794;2022-12-28T14:41:51;8.60;99.20
60868;DHT22;46702;48.370;10.794;2022-12-28T14:44:43;8.60;98.70
60868;DHT22;46702;48.370;10.794;2022-12-28T14:47:34;8.60;97.00
60868;DHT22;46702;48.370;10.794;2022-12-28T14:50:02;8.60;98.40
60868;DHT22;46702;48.370;10.794;2022-12-28T14:52:33;8.60;97.60
60868;DHT22;46702;48.370;10.794;2022-12-28T14:55:18;8.60;99.80
60868;DHT22;46702;48.370;10.794;2022-12-28T14:57:44;8.50;97.80
60868;DHT22;46702;48.370;10.794;2022-12-28T15:02:48;8.30;96.40
60868;DHT22;46702;48.370;10.794;2022-12-28T15:05:33;8.30;96.70
60868;DHT22;46702;48.370;10.794;2022-12-28T15:07:59;8.20;98.30
60868;DHT22;46702;48.370;10.794;2022-12-28T15:10:25;8.10;94.70
60868;DHT22;46702;48.370;10.794;2022-12-28T15:12:50;8.00;96.50
60868;DHT22;46702;48.370;10.794;2022-12-28T15:15:16;7.90;97.40
60868;DHT22;46702;48.370;10.794;2022-12-28T15:17:42;7.80;99.90
60868;DHT22;46702;48.370;10.794;2022-12-28T15:20:07;7.70;99.80
60868;DHT22;46702;48.370;10.794;2022-12-28T15:22:33;7.60;99.90
60868;DHT22;46702;48.370;10.794;2022-12-28T15:24:59;7.50;99.90
60868;DHT22;46702;48.370;10.794;2022-12-28T15:27:24;7.50;99.90
60868;DHT22;46702;48.370;10.794;2022-12-28T15:29:50;7.40;99.90
60868;DHT22;46702;48.370;10.794;2022-12-28T15:32:15;7.30;99.90
60868;DHT22;46702;48.370;10.794;2022-12-28T15:34:41;7.20;99.90
60868;DHT22;46702;48.370;10.794;2022-12-28T15:37:07;7.10;99.90
60868;DHT22;46702;48.370;10.794;2022-12-28T15:39:32;7.10;99.90
60868;DHT22;46702;48.370;10.794;2022-12-28T15:41:58;7.10;99.90
60868;DHT22;46702;48.370;10.794;2022-12-28T15:44:24;7.00;99.90
60868;DHT22;46702;48.370;10.794;2022-12-28T15:46:49;7.00;99.90
60868;DHT22;46702;48.370;10.794;2022-12-28T15:49:16;6.90;99.90
60868;DHT22;46702;48.370;10.794;2022-12-28T15:51:42;6.70;99.90
60868;DHT22;46702;48.370;10.794;2022-12-28T15:54:08;6.50;99.90
60868;DHT22;46702;48.370;10.794;2022-12-28T15:56:36;6.40;99.90
60868;DHT22;46702;48.370;10.794;2022-12-28T15:59:05;6.30;99.90
60868;DHT22;46702;48.370;10.794;2022-12-28T16:01:31;6.40;99.90
60868;DHT22;46702;48.370;10.794;2022-12-28T16:03:59;6.30;99.90
60868;DHT22;46702;48.370;10.794;2022-12-28T16:06:25;6.20;99.90
60868;DHT22;46702;48.370;10.794;2022-12-28T16:08:53;6.20;99.90
60868;DHT22;46702;48.370;10.794;2022-12-28T16:11:20;6.20;99.90
60868;DHT22;46702;48.370;10.794;2022-12-28T16:13:50;6.10;99.90
60868;DHT22;46702;48.370;10.794;2022-12-28T16:16:16;6.10;99.90
60868;DHT22;46702;48.370;10.794;2022-12-28T16:18:42;6.00;99.90
60868;DHT22;46702;48.370;10.794;2022-12-28T16:21:09;6.00;99.90
60868;DHT22;46702;48.370;10.794;2022-12-28T16:23:37;6.00;99.90
60868;DHT22;46702;48.370;10.794;2022-12-28T16:26:04;5.90;99.90
60868;DHT22;46702;48.370;10.794;2022-12-28T16:28:31;5.90;99.90
60868;DHT22;46702;48.370;10.794;2022-12-28T16:30:56;5.80;99.90
60868;DHT22;46702;48.370;10.794;2022-12-28T16:33:22;5.80;99.90
60868;DHT22;46702;48.370;10.794;2022-12-28T16:35:48;5.80;99.90
60868;DHT22;46702;48.370;10.794;2022-12-28T16:38:15;5.70;99.90
60868;DHT22;46702;48.370;10.794;2022-12-28T16:40:41;5.70;99.90
60868;DHT22;46702;48.370;10.794;2022-12-28T16:43:07;5.70;99.90
60868;DHT22;46702;48.370;10.794;2022-12-28T16:45:38;5.60;99.90
60868;DHT22;46702;48.370;10.794;2022-12-28T16:48:05;5.50;99.90
60868;DHT22;46702;48.370;10.794;2022-12-28T16:50:31;5.60;99.90
60868;DHT22;46702;48.370;10.794;2022-12-28T16:52:57;5.50;99.90
60868;DHT22;46702;48.370;10.794;2022-12-28T16:55:26;5.50;99.90
60868;DHT22;46702;48.370;10.794;2022-12-28T16:57:52;5.30;99.90
60868;DHT22;46702;48.370;10.794;2022-12-28T17:00:17;5.10;99.90